50CO weather

William T Browder Heliport
Fort Collins, Colorado, United States

Public forecast

Using degrees Fahrenheit for public forecast. Weather courtesy of forecast.io.

METAR (pilot weather report)

Closest report is Northern Colorado Regional Airport, 12.7 nm (23.5 km) SSW. Retrieved 2019/08/23 11:56 UTC (16 minutes ago):

KFNL 231156Z AUTO 01005KT 10SM CLR 15/11 A2999 RMK AO2 SLP094 T01500111 10194 20150 53013

TAF (pilot weather forecast)

Closest forecast is Cheyenne Regional Jerry Olson Field, 30.5 nm (56.5 km) NNE. Retrieved 2019/08/23 12:27 UTC (0 seconds ago):

TAF KCYS 231124Z 2312/2412 VRB04KT P6SM OVC250 FM232000 16012G20KT P6SM VCTS SCT060CB BKN100 FM240100 VRB05KT P6SM BKN250